createdAt,value
2023-04-05T00:02:18.711Z,8.00
2023-04-05T00:04:50.609Z,9.03
2023-04-05T00:07:19.201Z,9.60
2023-04-05T00:09:46.530Z,7.70
2023-04-05T00:12:13.524Z,7.80
2023-04-05T00:14:40.821Z,9.20
2023-04-05T00:17:09.483Z,8.93
2023-04-05T00:19:39.215Z,7.90
2023-04-05T00:22:06.049Z,7.43
2023-04-05T00:24:33.971Z,9.07
2023-04-05T00:27:01.219Z,9.37
2023-04-05T00:29:28.485Z,7.93
2023-04-05T00:31:56.567Z,6.57
2023-04-05T00:34:23.465Z,8.53
2023-04-05T00:36:50.499Z,8.93
2023-04-05T00:39:17.472Z,8.10
2023-04-05T00:41:46.395Z,9.17
2023-04-05T00:44:15.012Z,6.93
2023-04-05T00:46:42.218Z,6.53
2023-04-05T00:49:09.568Z,6.90
2023-04-05T00:51:38.039Z,6.00
2023-04-05T00:54:05.604Z,8.47
2023-04-05T00:56:32.923Z,9.50
2023-04-05T00:58:59.727Z,9.50
2023-04-05T01:01:28.011Z,7.67
2023-04-05T01:04:02.972Z,7.93
2023-04-05T01:06:52.499Z,8.37
2023-04-05T01:09:47.270Z,7.67
2023-04-05T01:12:17.988Z,8.43
2023-04-05T01:14:50.211Z,8.10
2023-04-05T01:17:28.263Z,6.67
2023-04-05T01:19:58.985Z,7.73
2023-04-05T01:22:38.030Z,9.07
2023-04-05T01:25:39.072Z,8.20
2023-04-05T01:28:43.444Z,8.93
2023-04-05T01:31:16.373Z,9.37
2023-04-05T01:34:08.487Z,8.40
2023-04-05T01:36:45.386Z,7.83
2023-04-05T01:39:15.272Z,9.97
2023-04-05T01:41:43.292Z,8.47
2023-04-05T01:44:10.056Z,8.63
2023-04-05T01:46:36.862Z,10.50
2023-04-05T01:49:04.340Z,8.97
2023-04-05T01:51:32.283Z,8.70
2023-04-05T01:54:00.302Z,9.47
2023-04-05T01:56:27.383Z,7.40
2023-04-05T01:58:54.155Z,8.87
2023-04-05T02:01:21.082Z,10.07
2023-04-05T02:03:47.946Z,8.17
2023-04-05T02:06:14.683Z,10.00
2023-04-05T02:08:41.384Z,7.10
2023-04-05T02:11:08.165Z,9.93
2023-04-05T02:13:34.947Z,9.30
2023-04-05T02:16:01.742Z,6.83
2023-04-05T02:18:31.893Z,8.97
2023-04-05T02:21:04.664Z,9.70
2023-04-05T02:23:32.658Z,8.30
2023-04-05T02:25:59.601Z,10.27
2023-04-05T02:28:26.887Z,7.87
2023-04-05T02:30:54.542Z,7.63
2023-04-05T02:33:22.834Z,7.27
2023-04-05T02:35:52.087Z,7.53
2023-04-05T02:38:19.286Z,9.23
2023-04-05T02:40:48.784Z,9.43
2023-04-05T02:43:15.496Z,7.10
2023-04-05T02:45:42.245Z,7.37
2023-04-05T02:48:09.189Z,7.17
2023-04-05T02:50:36.011Z,7.97
2023-04-05T02:53:02.998Z,8.83
2023-04-05T02:55:31.043Z,7.43
2023-04-05T02:58:02.868Z,7.57
2023-04-05T03:00:42.430Z,6.43
2023-04-05T03:03:10.519Z,7.27
2023-04-05T03:05:43.380Z,8.67
2023-04-05T03:08:19.500Z,7.23
2023-04-05T03:10:56.878Z,9.20
2023-04-05T03:13:23.634Z,5.60
2023-04-05T03:15:54.191Z,8.27
2023-04-05T03:18:21.251Z,7.10
2023-04-05T03:20:50.290Z,6.67
2023-04-05T03:23:20.739Z,8.17
2023-04-05T03:26:03.251Z,6.40
2023-04-05T03:28:34.524Z,5.63
2023-04-05T03:31:05.192Z,6.20
2023-04-05T03:33:32.701Z,8.33
2023-04-05T03:35:59.802Z,6.17
2023-04-05T03:38:28.993Z,6.30
2023-04-05T03:41:08.561Z,5.97
2023-04-05T03:43:36.452Z,7.80
2023-04-05T03:46:03.383Z,6.40
2023-04-05T03:48:30.507Z,6.97
2023-04-05T03:50:57.302Z,9.23
2023-04-05T03:53:24.102Z,6.80
2023-04-05T03:55:55.730Z,8.10
2023-04-05T03:58:37.554Z,6.97
2023-04-05T04:01:04.480Z,7.33
2023-04-05T04:03:31.656Z,7.23
2023-04-05T04:06:00.163Z,6.67
2023-04-05T04:08:28.160Z,7.07
2023-04-05T04:11:01.516Z,5.90
2023-04-05T04:13:32.426Z,8.23
2023-04-05T04:16:04.064Z,8.97
2023-04-05T04:18:54.339Z,8.77
2023-04-05T04:21:52.384Z,10.03
2023-04-05T04:24:53.528Z,9.83
2023-04-05T04:27:50.595Z,8.10
2023-04-05T04:30:37.328Z,8.00
2023-04-05T04:33:13.515Z,7.00
2023-04-05T04:36:07.870Z,7.83
2023-04-05T04:38:54.755Z,6.23
2023-04-05T04:41:47.056Z,5.97
2023-04-05T04:44:46.164Z,7.20
2023-04-05T04:47:21.832Z,9.47
2023-04-05T04:50:10.404Z,6.60
2023-04-05T04:52:38.855Z,7.37
2023-04-05T04:55:08.289Z,7.97
2023-04-05T04:57:35.480Z,7.60
2023-04-05T05:00:08.022Z,9.27
2023-04-05T05:02:34.820Z,6.47
2023-04-05T05:05:01.555Z,7.33
2023-04-05T05:07:28.861Z,10.67
2023-04-05T05:09:55.806Z,6.53
2023-04-05T05:12:23.524Z,7.20
2023-04-05T05:14:50.308Z,8.57
2023-04-05T05:17:17.105Z,7.07
2023-04-05T05:19:43.860Z,8.50
2023-04-05T05:22:10.801Z,6.73
2023-04-05T05:24:37.576Z,7.33
2023-04-05T05:27:04.679Z,6.00
2023-04-05T05:29:32.650Z,7.57
2023-04-05T05:31:59.428Z,7.87
2023-04-05T05:34:26.536Z,8.87
2023-04-05T05:36:56.493Z,7.77
2023-04-05T05:39:23.606Z,6.57
2023-04-05T05:41:50.504Z,9.20
2023-04-05T05:44:17.344Z,11.60
2023-04-05T05:46:44.099Z,12.03
2023-04-05T05:49:11.424Z,8.10
2023-04-05T05:51:38.170Z,10.77
2023-04-05T05:54:04.972Z,10.33
2023-04-05T05:56:31.724Z,9.47
2023-04-05T05:58:59.540Z,9.10
2023-04-05T06:01:28.105Z,7.70
2023-04-05T06:03:55.736Z,7.70
2023-04-05T06:06:23.233Z,9.97
2023-04-05T06:08:51.384Z,7.20
2023-04-05T06:11:22.947Z,9.63
2023-04-05T06:13:52.589Z,10.33
2023-04-05T06:16:19.572Z,7.37
2023-04-05T06:18:46.527Z,7.57
2023-04-05T06:21:14.301Z,7.93
2023-04-05T06:23:42.141Z,8.03
2023-04-05T06:26:09.383Z,6.63
2023-04-05T06:28:39.219Z,7.60
2023-04-05T06:31:06.015Z,7.03
2023-04-05T06:33:32.710Z,8.67
2023-04-05T06:35:59.493Z,7.43
2023-04-05T06:38:26.228Z,9.73
2023-04-05T06:40:52.996Z,6.20
2023-04-05T06:43:19.781Z,6.07
2023-04-05T06:45:46.534Z,7.67
2023-04-05T06:48:13.416Z,7.17
2023-04-05T06:50:41.046Z,6.43
2023-04-05T06:53:08.028Z,6.70
2023-04-05T06:55:34.814Z,6.60
2023-04-05T06:58:01.646Z,6.37
2023-04-05T07:00:28.407Z,7.23
2023-04-05T07:02:55.288Z,6.30
2023-04-05T07:05:22.103Z,6.70
2023-04-05T07:07:48.900Z,8.83
2023-04-05T07:10:16.348Z,7.40
2023-04-05T07:12:43.064Z,6.97
2023-04-05T07:15:10.451Z,6.97
2023-04-05T07:17:37.267Z,6.00
2023-04-05T07:20:06.828Z,8.37
2023-04-05T07:22:34.462Z,7.27
2023-04-05T07:25:02.464Z,7.63
2023-04-05T07:27:32.190Z,6.13
2023-04-05T07:29:59.091Z,6.18
2023-04-05T07:32:25.987Z,6.45
2023-04-05T07:34:53.017Z,6.47
2023-04-05T07:37:19.767Z,5.25
2023-04-05T07:39:46.493Z,6.93
2023-04-05T07:42:13.216Z,6.90
2023-04-05T07:44:39.998Z,4.85
2023-04-05T07:47:06.747Z,5.93
2023-04-05T07:49:33.717Z,6.25
2023-04-05T07:52:00.470Z,7.13
2023-04-05T07:54:27.245Z,4.82
2023-04-05T07:56:55.343Z,5.43
2023-04-05T07:59:22.262Z,4.60
2023-04-05T08:01:49.059Z,4.57
2023-04-05T08:04:15.798Z,6.47
2023-04-05T08:06:42.532Z,4.13
2023-04-05T08:09:10.848Z,5.82
2023-04-05T08:11:37.836Z,5.15
2023-04-05T08:14:04.604Z,5.50
2023-04-05T08:16:31.428Z,4.47
2023-04-05T08:18:58.228Z,4.82
2023-04-05T08:21:25.022Z,4.10
2023-04-05T08:23:51.932Z,6.55
2023-04-05T08:26:18.777Z,4.18
2023-04-05T08:28:45.499Z,3.92
2023-04-05T08:31:13.707Z,4.03
2023-04-05T08:33:40.879Z,4.32
2023-04-05T08:36:08.877Z,5.25
2023-04-05T08:38:35.775Z,4.80
2023-04-05T08:41:14.477Z,4.25
2023-04-05T08:44:02.961Z,5.25
2023-04-05T08:46:31.762Z,3.88
2023-04-05T08:48:58.882Z,4.97
2023-04-05T08:51:26.313Z,5.15
2023-04-05T08:53:53.635Z,6.05
2023-04-05T08:56:25.391Z,5.38
2023-04-05T08:59:08.475Z,4.32
2023-04-05T09:01:44.812Z,4.45
2023-04-05T09:04:23.313Z,4.60
2023-04-05T09:06:51.536Z,4.40
2023-04-05T09:09:22.527Z,6.05
2023-04-05T09:11:50.262Z,3.95
2023-04-05T09:14:17.945Z,4.40
2023-04-05T09:16:44.742Z,4.60
2023-04-05T09:19:11.625Z,4.82
2023-04-05T09:21:57.896Z,4.63
2023-04-05T09:24:35.514Z,5.30
2023-04-05T09:27:06.261Z,4.15
2023-04-05T09:29:33.091Z,4.43
2023-04-05T09:32:05.239Z,4.53
2023-04-05T09:34:37.439Z,3.90
2023-04-05T09:37:19.106Z,5.30
2023-04-05T09:39:47.205Z,4.53
2023-04-05T09:42:16.465Z,4.85
2023-04-05T09:44:54.218Z,3.92
2023-04-05T09:47:23.235Z,3.67
2023-04-05T09:49:54.340Z,4.70
2023-04-05T09:52:28.803Z,4.07
2023-04-05T09:54:57.378Z,4.30
2023-04-05T09:57:27.278Z,4.15
2023-04-05T09:59:54.457Z,4.68
2023-04-05T10:02:25.407Z,4.35
2023-04-05T10:04:52.402Z,4.53
2023-04-05T10:07:20.069Z,4.32
2023-04-05T10:09:48.408Z,5.65
2023-04-05T10:12:29.054Z,3.72
2023-04-05T10:14:57.072Z,4.18
2023-04-05T10:17:29.900Z,3.80
2023-04-05T10:20:17.929Z,4.68
2023-04-05T10:22:59.821Z,3.45
2023-04-05T10:25:53.078Z,4.32
2023-04-05T10:28:23.086Z,4.25
2023-04-05T10:30:55.751Z,5.82
2023-04-05T10:33:27.401Z,4.22
2023-04-05T10:36:22.709Z,4.63
2023-04-05T10:39:23.038Z,4.60
2023-04-05T10:41:54.359Z,4.00
2023-04-05T10:44:26.487Z,4.80
2023-04-05T10:46:55.830Z,4.65
2023-04-05T10:49:32.418Z,5.18
2023-04-05T10:51:59.593Z,4.57
2023-04-05T10:54:26.764Z,5.88
2023-04-05T10:56:54.992Z,6.30
2023-04-05T10:59:22.700Z,4.72
2023-04-05T11:01:50.781Z,4.38
2023-04-05T11:04:18.200Z,4.43
2023-04-05T11:06:48.087Z,5.80
2023-04-05T11:09:20.417Z,4.85
2023-04-05T11:11:48.276Z,4.35
2023-04-05T11:14:33.662Z,4.38
2023-04-05T11:17:00.603Z,5.72
2023-04-05T11:19:42.656Z,5.40
2023-04-05T11:22:10.362Z,5.55
2023-04-05T11:24:58.848Z,4.80
2023-04-05T11:27:29.131Z,4.20
2023-04-05T11:29:57.606Z,4.93
2023-04-05T11:32:37.783Z,4.22
2023-04-05T11:35:13.883Z,4.97
2023-04-05T11:38:06.158Z,5.40
2023-04-05T11:40:34.852Z,5.57
2023-04-05T11:43:08.500Z,3.53
2023-04-05T11:45:37.618Z,4.65
2023-04-05T11:48:13.466Z,3.95
2023-04-05T11:50:42.061Z,5.30
2023-04-05T11:53:17.221Z,4.90
2023-04-05T11:55:46.273Z,5.20
2023-04-05T11:58:21.599Z,3.85
2023-04-05T12:00:58.661Z,6.05
2023-04-05T12:03:28.862Z,5.43
2023-04-05T12:05:58.080Z,5.38
2023-04-05T12:08:38.577Z,4.35
2023-04-05T12:11:08.948Z,4.05
2023-04-05T12:13:36.584Z,4.65
2023-04-05T12:16:07.910Z,4.35
2023-04-05T12:18:36.873Z,4.97
2023-04-05T12:21:08.853Z,4.18
2023-04-05T12:23:37.314Z,4.18
2023-04-05T12:26:07.049Z,4.15
2023-04-05T12:28:58.466Z,5.15
2023-04-05T12:31:41.348Z,5.30
2023-04-05T12:34:09.114Z,4.93
2023-04-05T12:36:36.976Z,6.63
2023-04-05T12:39:07.517Z,4.47
2023-04-05T12:41:34.787Z,5.82
2023-04-05T12:44:27.825Z,6.72
2023-04-05T12:47:02.628Z,5.40
2023-04-05T12:49:35.350Z,5.47
2023-04-05T12:52:02.973Z,4.90
2023-04-05T12:54:32.044Z,4.80
2023-04-05T12:57:01.644Z,5.30
2023-04-05T12:59:28.507Z,5.73
2023-04-05T13:01:55.380Z,7.77
2023-04-05T13:04:23.124Z,5.57
2023-04-05T13:06:50.147Z,6.53
2023-04-05T13:09:17.186Z,8.53
2023-04-05T13:11:44.014Z,4.73
2023-04-05T13:14:10.700Z,5.43
2023-04-05T13:16:37.446Z,5.97
2023-04-05T13:19:04.234Z,6.40
2023-04-05T13:21:31.011Z,5.60
2023-04-05T13:23:58.023Z,5.33
2023-04-05T13:26:24.764Z,5.47
2023-04-05T13:28:51.509Z,5.93
2023-04-05T13:31:18.309Z,4.67
2023-04-05T13:33:45.247Z,5.47
2023-04-05T13:36:12.741Z,4.50
2023-04-05T13:38:39.901Z,6.37
2023-04-05T13:41:06.968Z,7.07
2023-04-05T13:43:34.003Z,6.93
2023-04-05T13:46:00.808Z,6.23
2023-04-05T13:48:27.592Z,5.67
2023-04-05T13:50:54.326Z,5.57
2023-04-05T13:53:21.024Z,5.03
2023-04-05T13:55:47.706Z,6.50
2023-04-05T13:58:14.598Z,5.13
2023-04-05T14:00:41.825Z,6.27
2023-04-05T14:03:08.999Z,5.43
2023-04-05T14:05:36.012Z,4.83
2023-04-05T14:08:02.870Z,6.63
2023-04-05T14:10:31.908Z,7.20
2023-04-05T14:12:58.681Z,5.47
2023-04-05T14:15:25.734Z,5.07
2023-04-05T14:17:52.601Z,5.63
2023-04-05T14:20:19.360Z,6.00
2023-04-05T14:22:46.214Z,6.70
2023-04-05T14:25:12.973Z,5.80
2023-04-05T14:27:42.433Z,6.33
2023-04-05T14:30:12.997Z,4.23
2023-04-05T14:32:40.156Z,5.07
2023-04-05T14:35:07.494Z,6.33
2023-04-05T14:37:34.264Z,6.10
2023-04-05T14:40:01.178Z,5.97
2023-04-05T14:42:41.045Z,5.27
2023-04-05T14:45:15.226Z,5.77
2023-04-05T14:47:42.077Z,6.23
2023-04-05T14:50:09.319Z,6.57
2023-04-05T14:52:36.216Z,5.83
2023-04-05T14:55:03.053Z,6.80
2023-04-05T14:57:29.821Z,7.00
2023-04-05T14:59:56.627Z,5.50
2023-04-05T15:02:23.436Z,6.53
2023-04-05T15:04:50.313Z,5.80
2023-04-05T15:07:17.030Z,4.93
2023-04-05T15:09:43.774Z,7.30
2023-04-05T15:12:10.539Z,5.10
2023-04-05T15:14:37.421Z,5.53
2023-04-05T15:17:04.373Z,6.50
2023-04-05T15:19:31.461Z,8.20
2023-04-05T15:21:58.315Z,6.80
2023-04-05T15:24:25.088Z,6.40
2023-04-05T15:26:52.041Z,6.73
2023-04-05T15:29:18.802Z,6.60
2023-04-05T15:31:45.863Z,6.23
2023-04-05T15:34:12.780Z,6.30
2023-04-05T15:36:39.673Z,7.43
2023-04-05T15:39:07.152Z,7.20
2023-04-05T15:41:34.691Z,6.03
2023-04-05T15:44:02.073Z,6.87
2023-04-05T15:46:29.700Z,7.67
2023-04-05T15:48:56.692Z,5.40
2023-04-05T15:51:23.421Z,9.30
2023-04-05T15:53:50.823Z,6.60
2023-04-05T15:56:18.181Z,8.53
2023-04-05T15:58:45.367Z,5.70
2023-04-05T16:01:12.454Z,6.70
2023-04-05T16:03:39.666Z,8.87
2023-04-05T16:06:06.777Z,7.33
2023-04-05T16:08:33.610Z,6.27
2023-04-05T16:11:00.607Z,5.80
2023-04-05T16:13:27.902Z,6.77
2023-04-05T16:15:54.694Z,8.03
2023-04-05T16:18:23.747Z,7.97
2023-04-05T16:20:50.574Z,6.20
2023-04-05T16:23:17.356Z,5.70
2023-04-05T16:25:44.216Z,6.67
2023-04-05T16:28:11.009Z,8.47
2023-04-05T16:30:37.894Z,6.57
2023-04-05T16:33:05.408Z,5.47
2023-04-05T16:35:32.296Z,8.53
2023-04-05T16:37:59.295Z,7.37
2023-04-05T16:40:26.446Z,5.97
2023-04-05T16:42:54.242Z,7.13
2023-04-05T16:45:21.501Z,5.73
2023-04-05T16:47:48.516Z,8.13
2023-04-05T16:50:15.455Z,4.80
2023-04-05T16:52:42.417Z,5.27
2023-04-05T16:55:09.758Z,5.53
2023-04-05T16:57:36.718Z,4.97
2023-04-05T17:00:05.438Z,5.17
2023-04-05T17:02:32.237Z,5.07
2023-04-05T17:04:59.059Z,6.50
2023-04-05T17:07:25.876Z,6.83
2023-04-05T17:09:52.628Z,5.80
2023-04-05T17:12:20.051Z,6.03
2023-04-05T17:14:46.831Z,8.33
2023-04-05T17:17:13.584Z,4.67
2023-04-05T17:19:40.412Z,7.43
2023-04-05T17:22:07.203Z,7.67
2023-04-05T17:24:36.086Z,5.33
2023-04-05T17:27:04.440Z,5.63
2023-04-05T17:29:31.247Z,6.23
2023-04-05T17:32:00.870Z,6.00
2023-04-05T17:34:27.667Z,5.17
2023-04-05T17:36:54.449Z,5.83
2023-04-05T17:39:21.476Z,5.73
2023-04-05T17:41:50.332Z,5.23
2023-04-05T17:44:17.154Z,5.27
2023-04-05T17:46:51.137Z,6.93
2023-04-05T17:49:24.379Z,7.17
2023-04-05T17:51:51.188Z,5.90
2023-04-05T17:54:18.076Z,6.10
2023-04-05T17:56:45.928Z,4.70
2023-04-05T17:59:12.780Z,6.03
2023-04-05T18:01:39.757Z,5.40
2023-04-05T18:04:12.405Z,5.87
2023-04-05T18:06:39.503Z,6.60
2023-04-05T18:09:08.617Z,10.37
2023-04-05T18:11:36.519Z,6.23
2023-04-05T18:14:03.652Z,7.00
2023-04-05T18:16:32.288Z,7.47
2023-04-05T18:18:59.163Z,6.27
2023-04-05T18:21:26.103Z,7.63
2023-04-05T18:23:52.913Z,6.27
2023-04-05T18:26:19.780Z,6.60
2023-04-05T18:28:46.645Z,4.87
2023-04-05T18:31:13.479Z,6.17
2023-04-05T18:33:40.858Z,6.37
2023-04-05T18:36:08.199Z,4.27
2023-04-05T18:38:35.362Z,6.30
2023-04-05T18:41:03.895Z,8.70
2023-04-05T18:43:31.138Z,6.17
2023-04-05T18:45:57.886Z,5.90
2023-04-05T18:48:25.457Z,8.87
2023-04-05T18:50:55.297Z,6.93
2023-04-05T18:53:22.316Z,6.73
2023-04-05T18:55:52.642Z,8.07
2023-04-05T18:58:20.350Z,10.63
2023-04-05T19:00:47.213Z,14.43
2023-04-05T19:03:16.221Z,17.10
2023-04-05T19:05:49.209Z,19.07
2023-04-05T19:08:16.620Z,14.27
2023-04-05T19:10:43.344Z,11.47
2023-04-05T19:13:10.249Z,9.93
2023-04-05T19:15:38.218Z,11.40
2023-04-05T19:18:05.551Z,11.60
2023-04-05T19:20:32.481Z,12.37
2023-04-05T19:22:59.294Z,14.73
2023-04-05T19:25:26.431Z,13.03
2023-04-05T19:27:54.851Z,16.57
2023-04-05T19:30:21.924Z,23.97
2023-04-05T19:32:49.252Z,23.33
2023-04-05T19:35:16.252Z,18.87
2023-04-05T19:37:43.105Z,11.17
2023-04-05T19:40:10.632Z,7.30
2023-04-05T19:42:37.491Z,8.87
2023-04-05T19:45:08.008Z,10.43
2023-04-05T19:47:35.894Z,8.73
2023-04-05T19:50:04.619Z,10.13
2023-04-05T19:52:47.220Z,10.53
2023-04-05T19:55:38.244Z,12.43
2023-04-05T19:58:10.076Z,13.00
2023-04-05T20:00:52.220Z,11.27
2023-04-05T20:03:30.313Z,10.93
2023-04-05T20:06:14.072Z,8.43
2023-04-05T20:08:46.844Z,8.67
2023-04-05T20:11:18.773Z,11.77
2023-04-05T20:13:51.155Z,9.67
2023-04-05T20:16:23.838Z,11.00
2023-04-05T20:18:50.795Z,10.53
2023-04-05T20:21:18.231Z,8.33
2023-04-05T20:23:45.440Z,10.70
2023-04-05T20:26:17.383Z,9.70
2023-04-05T20:28:54.857Z,7.83
2023-04-05T20:31:25.584Z,9.00
2023-04-05T20:33:58.776Z,10.57
2023-04-05T20:36:33.204Z,8.43
2023-04-05T20:39:02.307Z,9.83
2023-04-05T20:41:29.827Z,9.07
2023-04-05T20:43:56.690Z,7.27
2023-04-05T20:46:24.180Z,6.53
2023-04-05T20:48:53.389Z,8.10
2023-04-05T20:51:20.267Z,6.77
2023-04-05T20:53:47.017Z,8.40
2023-04-05T20:56:13.894Z,8.47
2023-04-05T20:58:40.979Z,8.03
2023-04-05T21:01:08.541Z,7.97
2023-04-05T21:03:37.871Z,8.97
2023-04-05T21:06:05.828Z,9.23
2023-04-05T21:08:32.875Z,9.23
2023-04-05T21:11:00.112Z,11.33
2023-04-05T21:13:27.095Z,9.47
2023-04-05T21:15:55.710Z,10.07
2023-04-05T21:18:25.601Z,10.70
2023-04-05T21:20:53.999Z,9.57
2023-04-05T21:23:28.790Z,10.97
2023-04-05T21:25:56.676Z,8.67
2023-04-05T21:28:24.982Z,10.83
2023-04-05T21:30:52.480Z,9.50
2023-04-05T21:33:20.093Z,12.63
2023-04-05T21:35:46.894Z,7.97
2023-04-05T21:38:15.651Z,9.40
2023-04-05T21:40:44.653Z,9.27
2023-04-05T21:43:13.244Z,9.03
2023-04-05T21:45:40.245Z,10.70
2023-04-05T21:48:07.188Z,11.20
2023-04-05T21:50:33.979Z,8.13
2023-04-05T21:53:00.781Z,9.90
2023-04-05T21:55:27.813Z,8.27
2023-04-05T21:57:54.592Z,9.33
2023-04-05T22:00:21.765Z,9.23
2023-04-05T22:02:48.701Z,8.50
2023-04-05T22:05:29.509Z,7.67
2023-04-05T22:08:03.666Z,9.00
2023-04-05T22:10:30.599Z,9.80
2023-04-05T22:12:57.510Z,9.70
2023-04-05T22:15:24.373Z,7.67
2023-04-05T22:17:51.309Z,7.47
2023-04-05T22:20:18.348Z,8.10
2023-04-05T22:22:45.361Z,9.57
2023-04-05T22:25:12.224Z,9.43
2023-04-05T22:27:39.511Z,7.83
2023-04-05T22:30:08.141Z,10.20
2023-04-05T22:32:35.721Z,8.00
2023-04-05T22:35:04.510Z,8.17
2023-04-05T22:37:35.745Z,11.03
2023-04-05T22:40:04.371Z,9.87
2023-04-05T22:42:31.536Z,8.77
2023-04-05T22:44:58.950Z,9.30
2023-04-05T22:47:26.024Z,12.60
2023-04-05T22:49:52.971Z,10.10
2023-04-05T22:52:19.793Z,10.10
2023-04-05T22:54:46.643Z,10.73
2023-04-05T22:57:13.509Z,15.33
2023-04-05T22:59:40.523Z,12.83
2023-04-05T23:02:07.458Z,10.23
2023-04-05T23:04:34.257Z,9.93
2023-04-05T23:07:01.057Z,8.63
2023-04-05T23:09:27.846Z,9.50
2023-04-05T23:11:54.586Z,11.27
2023-04-05T23:14:21.768Z,12.17
2023-04-05T23:16:48.624Z,13.00
2023-04-05T23:19:16.429Z,11.73
2023-04-05T23:21:43.171Z,13.17
2023-04-05T23:24:11.184Z,11.73
2023-04-05T23:26:38.177Z,12.27
2023-04-05T23:29:04.963Z,18.10
2023-04-05T23:31:31.749Z,22.23
2023-04-05T23:33:58.551Z,20.87
2023-04-05T23:36:25.979Z,18.90
2023-04-05T23:38:52.730Z,18.47
2023-04-05T23:41:19.524Z,14.73
2023-04-05T23:43:46.354Z,15.53
2023-04-05T23:46:13.399Z,15.90
2023-04-05T23:48:40.349Z,15.63
2023-04-05T23:51:07.185Z,14.93
2023-04-05T23:53:34.016Z,13.43
2023-04-05T23:56:01.011Z,11.87
2023-04-05T23:58:28.281Z,10.43
